GCK weather

Garden City Regional Airport
Garden City, Kansas, United States

Public forecast

Using degrees Fahrenheit for public forecast. Weather courtesy of forecast.io.

METAR (pilot weather report)

Retrieved 2019/07/21 07:54 UTC (22 minutes ago):

KGCK 210754Z AUTO 23006KT 10SM -RA SCT110 21/18 A3001 RMK AO2 RAB33 SLP119 P0001 T02060183

TAF (pilot weather forecast)

Retrieved 2019/07/21 06:22 UTC (2 hours ago):

TAF KGCK 210520Z 2106/2206 14016G24KT P6SM TS OVC050CB WS010/21020KT FM210700 03008KT P6SM BKN024 FM212100 04010G18KT P6SM BKN200 FM220300 03012KT P6SM BKN070